Crittenden, Kentucky
Current Conditions -  °F | °C
As of 10:52 AM on Monday 26 Jan 2015 (Local Time) from KCVG Reporting Station
Broken Clouds Broken Clouds  
Wind Chill:   Ceiling: 1300
Heat Index: 22°   Visibility: 10mi
Dew Point: 15°   Wind: 15mph
Humidity: 75%   Direction: 330°NNW
Pressure: 29.93"   Gusts: NA
Location:  38.78°N, 84.61°W
Report Text: KCVG 261552Z 33013KT 10SM BKN013 BKN036 M06/M09 A2993 RMK AO2 SLP141 T10561094
Loading
Personal Weather Stations






























Interactive Weather Map New forecast layout! Learn more

10-Day Weather Forecast

Advertisements
Track Severe Weather on mobile